Time;durP1;ratioP1;P1;durP2;ratioP2;P2;SDS_P1;SDS_P2;PMS_P1;PMS_P2;Temp;Humidity;BMP_temperature;BMP_pressure;BME280_temperature;BME280_humidity;BME280_pressure;Samples;Min_cycle;Max_cycle;Signal;HPM_P1;HPM_P2
2020/12/29 00:00:58;;;;;;;3.30;3.20;;;;;;;5.17;94.15;99621.81;6002668;29;20216;-78
2020/12/29 00:04:16;;;;;;;3.60;3.43;;;;;;;5.23;92.96;99615.56;6000517;29;20207;-77
2020/12/29 00:07:22;;;;;;;3.17;3.03;;;;;;;5.27;93.48;99628.44;6010510;29;20209;-77
2020/12/29 00:10:25;;;;;;;3.93;3.63;;;;;;;5.19;94.03;99617.06;6007634;29;20213;-77
2020/12/29 00:13:28;;;;;;;4.40;4.03;;;;;;;5.38;93.25;99614.28;6012900;29;20204;-79
2020/12/29 00:16:32;;;;;;;9.83;5.20;;;;;;;5.41;92.81;99615.72;6007306;29;20214;-77
2020/12/29 00:19:35;;;;;;;4.23;3.93;;;;;;;5.36;93.42;99626.34;6022158;29;20688;-79
2020/12/29 00:22:39;;;;;;;3.73;3.63;;;;;;;5.36;93.19;99612.84;6017562;29;20206;-79
2020/12/29 00:25:42;;;;;;;4.20;3.90;;;;;;;5.29;94.44;99614.72;5993627;29;20762;-75
2020/12/29 00:28:46;;;;;;;3.80;3.60;;;;;;;5.28;94.38;99618.47;6004426;29;20599;-78
2020/12/29 00:31:49;;;;;;;3.97;3.77;;;;;;;5.12;95.79;99613.50;6007686;29;20206;-79
2020/12/29 00:34:53;;;;;;;3.53;3.33;;;;;;;5.34;94.17;99596.00;6008338;29;20229;-77
2020/12/29 00:37:57;;;;;;;3.63;3.33;;;;;;;5.40;93.80;99605.94;6014582;29;20204;-78
2020/12/29 00:41:00;;;;;;;4.00;3.70;;;;;;;5.34;94.17;99596.81;6003684;29;20213;-77
2020/12/29 00:44:05;;;;;;;3.90;3.50;;;;;;;5.34;94.53;99601.41;6011574;29;20228;-76
2020/12/29 00:47:13;;;;;;;3.27;2.97;;;;;;;5.29;94.15;99583.09;6019914;29;20296;-77
2020/12/29 00:50:17;;;;;;;3.90;3.57;;;;;;;5.27;94.56;99595.16;5993534;29;20259;-77
2020/12/29 00:53:28;;;;;;;3.60;3.30;;;;;;;5.27;94.43;99601.41;5987918;29;20211;-77
2020/12/29 00:56:35;;;;;;;2.97;2.77;;;;;;;5.29;94.72;99603.91;5976242;29;20735;-78
2020/12/29 00:59:39;;;;;;;3.00;2.90;;;;;;;5.24;95.22;99592.91;5982476;29;20732;-78
2020/12/29 01:02:43;;;;;;;3.63;3.43;;;;;;;5.26;95.31;99598.94;5979286;29;20290;-79
2020/12/29 01:05:53;;;;;;;3.30;3.20;;;;;;;5.29;95.55;99593.09;5959525;29;20682;-77
2020/12/29 01:08:58;;;;;;;3.30;3.10;;;;;;;5.23;95.53;99593.94;5970470;29;20234;-79
2020/12/29 01:12:20;;;;;;;3.70;3.50;;;;;;;5.22;95.83;99592.25;5979307;29;20580;-77
2020/12/29 01:15:25;;;;;;;3.47;3.20;;;;;;;5.14;95.44;99589.78;5976156;29;20235;-77
2020/12/29 01:18:39;;;;;;;3.40;3.20;;;;;;;5.41;95.22;99599.50;5973273;29;20212;-77
2020/12/29 01:21:42;;;;;;;3.33;3.07;;;;;;;5.44;93.27;99591.81;5981423;29;20601;-77
2020/12/29 01:24:47;;;;;;;3.37;3.17;;;;;;;5.42;92.80;99590.31;5979535;29;20345;-76
2020/12/29 01:27:51;;;;;;;3.93;3.20;;;;;;;5.19;94.02;99573.78;6000669;29;20296;-76
2020/12/29 01:30:54;;;;;;;2.77;2.67;;;;;;;5.21;93.88;99583.34;5978329;29;20215;-76
2020/12/29 01:33:58;;;;;;;2.97;2.87;;;;;;;5.43;93.41;99592.00;5984351;29;20345;-77
2020/12/29 01:37:01;;;;;;;5.43;2.97;;;;;;;5.31;93.92;99585.59;5984921;29;20290;-78
2020/12/29 01:40:10;;;;;;;3.00;2.80;;;;;;;5.28;94.34;99584.16;5981800;29;20217;-78
2020/12/29 01:43:27;;;;;;;2.70;2.60;;;;;;;5.36;93.85;99572.25;5982672;29;20298;-77
2020/12/29 01:46:30;;;;;;;3.87;2.90;;;;;;;5.51;92.73;99580.94;5984398;29;20647;-78
2020/12/29 01:49:33;;;;;;;3.13;2.90;;;;;;;5.43;93.75;99586.59;5983308;29;20222;-77
2020/12/29 01:52:37;;;;;;;2.97;2.87;;;;;;;5.08;95.15;99565.25;5978651;29;20781;-78
2020/12/29 01:55:42;;;;;;;3.03;2.70;;;;;;;5.28;95.46;99591.44;5998642;29;20290;-77
2020/12/29 01:58:45;;;;;;;3.33;2.67;;;;;;;5.36;93.87;99588.50;6007330;29;20676;-77
2020/12/29 02:01:51;;;;;;;2.33;2.23;;;;;;;5.29;92.80;99576.88;5990028;29;20226;-78
2020/12/29 02:04:54;;;;;;;2.77;2.67;;;;;;;5.28;93.29;99581.44;5990322;29;20263;-77
2020/12/29 02:07:58;;;;;;;2.20;2.20;;;;;;;5.08;93.23;99570.66;5995755;29;20232;-78
2020/12/29 02:11:03;;;;;;;2.53;2.33;;;;;;;5.34;92.58;99579.75;6005380;29;20206;-77
2020/12/29 02:14:08;;;;;;;2.40;2.30;;;;;;;5.19;92.90;99587.31;6009229;29;20373;-78
2020/12/29 02:17:12;;;;;;;2.23;2.00;;;;;;;5.23;93.92;99583.13;6010301;29;20206;-77
2020/12/29 02:20:15;;;;;;;2.37;2.17;;;;;;;5.22;93.53;99585.00;6010103;29;20215;-78
2020/12/29 02:23:20;;;;;;;2.63;2.43;;;;;;;5.32;92.12;99568.31;6004415;29;20203;-79
2020/12/29 02:26:25;;;;;;;2.30;2.20;;;;;;;5.45;91.71;99581.78;5997284;29;20217;-78
2020/12/29 02:29:32;;;;;;;2.30;2.10;;;;;;;5.23;93.04;99564.19;6001073;29;20216;-76
2020/12/29 02:32:37;;;;;;;2.10;2.00;;;;;;;5.35;92.89;99559.78;6025211;29;20208;-80
2020/12/29 02:35:41;;;;;;;4.63;2.17;;;;;;;5.27;93.78;99573.53;6012010;29;20818;-75
2020/12/29 02:38:46;;;;;;;1.97;1.80;;;;;;;5.29;92.49;99555.25;6001130;29;20218;-79
2020/12/29 02:41:50;;;;;;;2.47;1.93;;;;;;;5.43;92.10;99573.06;6009838;29;20213;-78
2020/12/29 02:44:53;;;;;;;2.27;2.07;;;;;;;5.22;93.11;99565.22;5995928;29;20213;-76
2020/12/29 02:47:56;;;;;;;2.17;2.00;;;;;;;5.23;93.15;99577.72;5999942;29;20658;-76
2020/12/29 02:50:59;;;;;;;2.00;1.87;;;;;;;5.43;92.04;99563.06;6000085;29;20246;-76
2020/12/29 02:54:04;;;;;;;1.93;1.93;;;;;;;5.19;93.98;99555.66;6005619;29;20216;-79
2020/12/29 02:57:07;;;;;;;2.10;2.00;;;;;;;5.14;94.73;99565.44;5993134;29;20325;-76
2020/12/29 03:00:11;;;;;;;2.37;2.20;;;;;;;5.36;93.44;99566.84;5999148;29;20204;-76
2020/12/29 03:03:30;;;;;;;2.13;2.03;;;;;;;5.36;93.05;99567.69;5992705;29;20215;-76
2020/12/29 03:06:34;;;;;;;2.77;2.57;;;;;;;5.28;94.95;99559.81;5992020;29;20274;-76
2020/12/29 03:09:38;;;;;;;1.90;1.80;;;;;;;5.52;93.46;99566.38;5999970;29;20363;-76
2020/12/29 03:12:41;;;;;;;2.10;2.00;;;;;;;5.41;94.41;99564.34;5996136;29;20296;-77
2020/12/29 03:15:44;;;;;;;1.93;1.93;;;;;;;5.44;93.03;99564.75;6000204;29;20779;-76
2020/12/29 03:18:48;;;;;;;2.43;2.33;;;;;;;5.24;94.45;99546.94;5995554;29;20208;-76
2020/12/29 03:21:51;;;;;;;2.50;2.30;;;;;;;5.43;93.71;99573.06;5992329;29;20210;-79
2020/12/29 03:24:55;;;;;;;2.03;2.00;;;;;;;5.31;93.85;99536.91;6005199;29;20210;-77
2020/12/29 03:27:59;;;;;;;2.20;2.00;;;;;;;5.63;92.71;99562.97;6001931;29;20210;-77
2020/12/29 03:31:02;;;;;;;1.93;1.93;;;;;;;5.44;93.48;99563.91;5998069;29;20217;-79
2020/12/29 03:34:08;;;;;;;1.90;1.80;;;;;;;5.39;92.84;99566.44;6002919;29;20226;-78
2020/12/29 03:37:16;;;;;;;1.63;1.63;;;;;;;5.42;91.08;99555.16;6008388;29;20203;-81
2020/12/29 03:40:20;;;;;;;4.50;1.47;;;;;;;5.26;91.84;99544.84;6012411;29;20622;-78
2020/12/29 03:43:25;;;;;;;1.57;1.57;;;;;;;5.36;91.91;99545.22;5997929;29;20211;-78
2020/12/29 03:46:29;;;;;;;1.60;1.57;;;;;;;5.48;92.13;99565.13;6007189;29;20297;-78
2020/12/29 03:49:32;;;;;;;1.93;1.83;;;;;;;5.34;92.67;99541.91;6004682;29;20199;-78
2020/12/29 03:52:35;;;;;;;1.70;1.60;;;;;;;5.39;93.00;99571.84;5994810;29;20230;-78
2020/12/29 03:55:40;;;;;;;1.63;1.53;;;;;;;5.41;93.92;99569.75;6001653;29;20228;-78
2020/12/29 03:58:43;;;;;;;1.60;1.60;;;;;;;5.37;92.83;99563.91;5999769;29;20670;-78
2020/12/29 04:01:46;;;;;;;1.67;1.60;;;;;;;5.35;92.62;99560.59;5986209;29;20585;-78
2020/12/29 04:04:50;;;;;;;1.60;1.60;;;;;;;5.36;92.81;99564.16;5996034;29;20295;-79
2020/12/29 04:07:53;;;;;;;1.33;1.33;;;;;;;5.39;92.60;99571.84;5999435;29;20387;-77
2020/12/29 04:10:58;;;;;;;1.73;1.60;;;;;;;5.42;92.34;99563.28;6000765;29;20666;-78
2020/12/29 04:14:02;;;;;;;1.87;1.37;;;;;;;5.43;92.62;99568.47;6005379;29;20425;-77
2020/12/29 04:17:05;;;;;;;1.93;1.50;;;;;;;5.40;92.69;99562.66;6011746;29;20325;-78
2020/12/29 04:20:13;;;;;;;1.60;1.50;;;;;;;5.42;93.07;99560.56;5999251;29;20281;-78
2020/12/29 04:23:22;;;;;;;1.77;1.67;;;;;;;5.25;94.51;99559.41;6008291;29;20199;-79
2020/12/29 04:26:28;;;;;;;1.40;1.40;;;;;;;5.48;92.91;99559.72;6011611;29;20249;-78
2020/12/29 04:29:31;;;;;;;1.50;1.50;;;;;;;5.41;94.22;99558.94;5999262;29;20669;-76
2020/12/29 04:32:36;;;;;;;2.70;1.80;;;;;;;5.41;92.99;99538.13;6000262;29;20292;-78
2020/12/29 04:35:39;;;;;;;1.60;1.60;;;;;;;5.47;93.33;99558.09;6005128;29;20222;-78
2020/12/29 04:38:42;;;;;;;2.00;1.90;;;;;;;5.44;92.87;99550.38;6001941;29;20643;-77
2020/12/29 04:41:51;;;;;;;1.97;1.90;;;;;;;5.20;94.50;99534.88;5999156;29;20217;-78
2020/12/29 04:44:55;;;;;;;1.80;1.80;;;;;;;5.50;93.37;99549.50;6015661;29;20214;-77
2020/12/29 04:47:58;;;;;;;1.90;1.90;;;;;;;5.65;93.01;99550.06;5996996;29;20210;-77
2020/12/29 04:51:04;;;;;;;3.43;2.07;;;;;;;5.55;93.83;99547.00;5991661;29;20231;-78
2020/12/29 04:54:08;;;;;;;2.03;1.93;;;;;;;5.38;93.78;99510.66;5998876;29;20686;-77
2020/12/29 04:57:13;;;;;;;2.50;2.00;;;;;;;5.51;94.45;99538.50;5992015;29;20242;-77
2020/12/29 05:00:16;;;;;;;2.17;2.07;;;;;;;5.48;94.78;99543.50;5993716;29;20289;-78
2020/12/29 05:03:41;;;;;;;2.13;1.93;;;;;;;5.71;93.68;99549.19;5992838;29;20266;-78
2020/12/29 05:06:45;;;;;;;2.00;1.90;;;;;;;5.69;93.91;99551.31;6000974;29;20213;-79
2020/12/29 05:09:50;;;;;;;2.23;2.13;;;;;;;5.65;93.79;99539.22;6004043;29;20501;-78
2020/12/29 05:12:54;;;;;;;2.93;2.73;;;;;;;5.58;94.67;99543.84;6006423;29;20308;-78
2020/12/29 05:15:57;;;;;;;2.57;2.37;;;;;;;5.55;94.88;99555.09;5998769;29;20225;-78
2020/12/29 05:19:04;;;;;;;2.40;2.30;;;;;;;5.56;94.46;99546.78;6004109;29;20218;-78
2020/12/29 05:22:13;;;;;;;2.93;2.83;;;;;;;5.69;94.21;99540.47;6013761;29;20206;-77
2020/12/29 05:25:31;;;;;;;3.10;3.00;;;;;;;5.58;93.96;99549.25;6000667;29;20208;-78
2020/12/29 05:28:51;;;;;;;2.77;2.67;;;;;;;5.61;94.67;99543.44;5994167;29;20219;-78
2020/12/29 05:31:54;;;;;;;3.97;3.00;;;;;;;5.77;93.54;99537.50;6011934;29;20710;-78
2020/12/29 05:34:59;;;;;;;2.47;2.47;;;;;;;5.50;95.18;99533.28;5998098;29;20213;-78
2020/12/29 05:38:07;;;;;;;3.10;2.73;;;;;;;5.73;93.90;99544.41;6003992;29;20556;-77
2020/12/29 05:41:21;;;;;;;2.90;2.80;;;;;;;5.76;94.08;99545.84;6003913;29;20206;-76
2020/12/29 05:44:27;;;;;;;2.57;2.47;;;;;;;5.85;92.61;99545.41;5998148;29;20304;-76
2020/12/29 05:47:32;;;;;;;2.67;2.63;;;;;;;5.61;93.96;99548.84;6001555;29;20630;-78
2020/12/29 05:50:37;;;;;;;3.37;2.80;;;;;;;5.74;93.70;99542.53;6011054;29;20765;-76
2020/12/29 05:53:42;;;;;;;2.70;2.60;;;;;;;5.74;93.93;99554.19;5993177;29;20297;-78
2020/12/29 05:56:46;;;;;;;3.43;2.50;;;;;;;5.67;94.07;99553.41;5994509;29;20404;-78
2020/12/29 05:59:51;;;;;;;2.60;2.50;;;;;;;5.75;93.54;99561.28;5994245;29;20214;-78
2020/12/29 06:02:55;;;;;;;2.40;2.30;;;;;;;5.70;94.00;99559.19;5997361;29;20229;-78
2020/12/29 06:05:59;;;;;;;3.13;2.20;;;;;;;5.73;92.98;99552.50;6001868;29;20205;-78
2020/12/29 06:09:05;;;;;;;2.77;2.50;;;;;;;5.63;93.83;99562.97;5999636;29;20237;-78
2020/12/29 06:12:24;;;;;;;2.33;2.23;;;;;;;5.60;93.69;99541.75;5995798;29;20325;-78
2020/12/29 06:15:30;;;;;;;2.23;2.17;;;;;;;5.65;93.85;99550.06;5993131;29;20317;-78
2020/12/29 06:18:36;;;;;;;4.60;2.20;;;;;;;5.57;93.58;99536.81;6002516;29;20646;-78
2020/12/29 06:21:39;;;;;;;2.33;2.33;;;;;;;5.68;93.81;99544.22;6008278;29;20284;-78
2020/12/29 06:24:45;;;;;;;2.20;2.20;;;;;;;5.66;94.13;99562.53;6007312;29;20525;-78
2020/12/29 06:27:52;;;;;;;2.40;2.30;;;;;;;5.61;93.83;99559.66;5998483;29;20210;-78
2020/12/29 06:30:56;;;;;;;2.47;2.37;;;;;;;5.38;94.03;99516.06;5994765;29;20226;-77
2020/12/29 06:34:05;;;;;;;2.67;2.57;;;;;;;5.43;95.19;99529.78;6007137;29;20213;-77
2020/12/29 06:37:18;;;;;;;2.53;2.43;;;;;;;5.67;95.04;99553.41;6007051;29;20213;-77
2020/12/29 06:40:22;;;;;;;2.37;2.27;;;;;;;5.69;94.41;99551.31;6006784;29;20226;-77
2020/12/29 06:43:27;;;;;;;2.67;2.47;;;;;;;5.82;93.98;99548.53;6008732;29;20211;-77
2020/12/29 06:46:31;;;;;;;2.73;2.53;;;;;;;5.82;93.95;99535.00;6008660;29;20213;-77
2020/12/29 06:49:35;;;;;;;3.70;2.70;;;;;;;5.69;95.21;99554.00;6004268;29;20221;-77
2020/12/29 06:52:39;;;;;;;2.80;2.70;;;;;;;5.44;96.30;99528.75;6003893;29;20272;-77
2020/12/29 06:55:45;;;;;;;3.17;2.83;;;;;;;5.70;96.15;99561.06;6036264;29;20194;-78
2020/12/29 06:58:48;;;;;;;2.87;2.77;;;;;;;5.60;96.97;99558.00;5996455;29;20203;-77
2020/12/29 07:01:53;;;;;;;6.10;3.77;;;;;;;5.61;96.85;99556.97;5992994;29;20211;-77
2020/12/29 07:04:57;;;;;;;3.83;3.53;;;;;;;5.91;95.21;99560.75;6000037;29;20207;-77
2020/12/29 07:08:01;;;;;;;4.30;3.90;;;;;;;5.88;95.21;99553.06;6001353;29;20577;-77
2020/12/29 07:11:17;;;;;;;8.63;4.40;;;;;;;5.91;95.15;99543.69;5997342;29;20274;-76
2020/12/29 07:14:21;;;;;;;9.07;5.07;;;;;;;5.82;96.46;99562.06;6002212;29;20222;-77
2020/12/29 07:17:25;;;;;;;4.97;4.53;;;;;;;5.96;95.34;99560.94;6006556;29;20230;-77
2020/12/29 07:20:34;;;;;;;5.23;4.93;;;;;;;5.99;95.64;99552.38;5998388;29;20511;-77
2020/12/29 07:23:38;;;;;;;8.53;5.30;;;;;;;5.97;96.00;99553.66;5996696;29;20211;-77
2020/12/29 07:26:41;;;;;;;7.83;5.77;;;;;;;5.96;95.85;99550.13;5991534;29;20222;-77
2020/12/29 07:29:54;;;;;;;6.87;6.20;;;;;;;6.12;95.34;99565.84;6000706;29;20209;-77
2020/12/29 07:33:00;;;;;;;7.03;6.33;;;;;;;6.02;95.60;99551.97;6009156;29;20214;-77
2020/12/29 07:36:07;;;;;;;11.27;7.93;;;;;;;6.18;95.11;99567.69;6003264;29;20292;-77
2020/12/29 07:39:12;;;;;;;8.27;7.43;;;;;;;6.18;95.42;99574.97;6008140;29;20206;-77
2020/12/29 07:42:17;;;;;;;10.67;7.80;;;;;;;5.99;96.64;99574.03;5996075;29;20214;-77
2020/12/29 07:45:22;;;;;;;13.60;7.30;;;;;;;6.19;95.85;99576.63;6007571;29;20207;-77
2020/12/29 07:48:27;;;;;;;8.70;7.60;;;;;;;6.13;95.22;99564.81;6006194;29;20226;-77
2020/12/29 07:51:30;;;;;;;11.10;7.43;;;;;;;6.28;94.13;99575.31;6012175;29;20233;-76
2020/12/29 07:54:34;;;;;;;8.00;7.23;;;;;;;6.19;95.55;99591.00;6009309;29;20221;-77
2020/12/29 07:57:38;;;;;;;9.57;7.63;;;;;;;6.25;94.87;99579.28;5996994;29;20327;-77
2020/12/29 08:00:41;;;;;;;12.67;7.37;;;;;;;6.23;94.82;99592.22;6010625;29;20198;-77
2020/12/29 08:03:51;;;;;;;15.57;7.73;;;;;;;6.34;94.07;99592.56;5999964;29;20645;-78
2020/12/29 08:06:55;;;;;;;13.30;8.00;;;;;;;6.22;94.46;99593.25;6003196;29;20294;-77
2020/12/29 08:09:58;;;;;;;12.03;7.57;;;;;;;6.25;94.41;99590.13;6004365;29;20218;-76
2020/12/29 08:13:03;;;;;;;12.10;7.17;;;;;;;6.36;93.47;99587.75;5999390;29;20210;-76
2020/12/29 08:16:07;;;;;;;8.33;7.40;;;;;;;6.14;94.32;99585.41;6000510;29;20202;-76
2020/12/29 08:19:11;;;;;;;11.23;7.90;;;;;;;6.16;94.94;99602.25;5993243;29;20211;-78
2020/12/29 08:22:15;;;;;;;12.57;7.80;;;;;;;6.07;94.69;99581.91;5990632;29;20575;-77
2020/12/29 08:25:19;;;;;;;9.23;7.80;;;;;;;6.07;96.15;99614.41;5998534;29;20210;-76
2020/12/29 08:28:25;;;;;;;13.03;8.47;;;;;;;6.08;96.29;99615.25;5989673;29;20233;-78
2020/12/29 08:31:29;;;;;;;8.77;7.10;;;;;;;6.27;95.02;99611.56;5997546;29;20394;-77
2020/12/29 08:34:34;;;;;;;8.60;7.23;;;;;;;6.39;93.88;99625.25;5992616;29;20789;-78
2020/12/29 08:38:00;;;;;;;9.63;7.70;;;;;;;6.37;94.04;99624.66;6000540;29;20228;-78
2020/12/29 08:41:11;;;;;;;12.90;7.80;;;;;;;6.01;95.83;99596.31;5994266;29;20215;-78
2020/12/29 08:44:15;;;;;;;11.20;7.50;;;;;;;6.31;94.54;99610.09;5991006;29;20286;-78
2020/12/29 08:47:18;;;;;;;8.40;7.60;;;;;;;6.29;95.22;99618.41;5991491;29;20236;-79
2020/12/29 08:50:29;;;;;;;10.50;7.37;;;;;;;6.26;94.78;99613.47;5991536;29;20330;-77
2020/12/29 08:53:32;;;;;;;8.13;7.10;;;;;;;6.40;94.09;99621.47;5998584;29;20211;-79
2020/12/29 08:56:36;;;;;;;11.80;7.17;;;;;;;6.39;94.27;99627.97;6005830;29;20303;-77
2020/12/29 08:59:41;;;;;;;10.67;7.43;;;;;;;6.49;93.58;99628.31;6003979;29;20211;-77
2020/12/29 09:02:45;;;;;;;7.97;7.17;;;;;;;6.45;94.08;99627.06;5997436;29;20289;-77
2020/12/29 09:05:51;;;;;;;10.67;7.30;;;;;;;6.50;93.84;99629.94;5998601;29;20206;-78
2020/12/29 09:09:06;;;;;;;10.03;7.13;;;;;;;6.37;94.16;99635.47;6011263;29;20245;-78
2020/12/29 09:12:16;;;;;;;9.80;7.70;;;;;;;6.50;94.08;99624.53;5995284;29;20221;-77
2020/12/29 09:15:25;;;;;;;10.70;7.83;;;;;;;6.48;94.17;99632.88;6009439;29;20211;-76
2020/12/29 09:18:38;;;;;;;11.77;7.80;;;;;;;6.38;95.19;99637.97;6003678;29;20219;-76
2020/12/29 09:21:42;;;;;;;8.40;7.53;;;;;;;6.60;93.33;99630.31;6000068;29;20207;-78
2020/12/29 09:24:51;;;;;;;12.43;7.57;;;;;;;6.47;93.87;99633.13;6001449;29;20207;-77
2020/12/29 09:28:11;;;;;;;10.80;7.17;;;;;;;6.61;93.38;99631.94;6001904;29;20325;-77
2020/12/29 09:31:16;;;;;;;10.93;7.30;;;;;;;6.30;92.85;99598.41;5999094;29;20751;-77
2020/12/29 09:34:20;;;;;;;9.83;7.77;;;;;;;6.60;92.46;99631.13;6001202;29;20270;-76
2020/12/29 09:37:24;;;;;;;8.03;7.23;;;;;;;6.53;92.51;99634.94;5995878;29;20667;-79
2020/12/29 09:40:29;;;;;;;9.27;7.40;;;;;;;6.47;93.47;99614.16;5993013;29;20899;-77
2020/12/29 09:43:32;;;;;;;15.30;7.53;;;;;;;6.48;93.70;99621.22;5997671;29;20655;-76
2020/12/29 09:46:36;;;;;;;10.33;7.30;;;;;;;6.53;94.57;99640.34;5993588;29;20557;-76
2020/12/29 09:49:40;;;;;;;8.17;7.40;;;;;;;6.72;93.62;99648.34;6002760;29;20211;-75
2020/12/29 09:52:44;;;;;;;10.77;7.40;;;;;;;6.56;94.65;99634.50;6006487;29;20632;-76
2020/12/29 09:55:47;;;;;;;8.77;7.40;;;;;;;6.43;95.76;99640.00;6002248;29;20270;-75
2020/12/29 09:58:50;;;;;;;9.90;7.20;;;;;;;6.39;95.94;99627.97;6008667;29;20274;-75
2020/12/29 10:01:54;;;;;;;12.67;7.40;;;;;;;6.49;95.70;99639.13;6000346;29;20234;-77
2020/12/29 10:04:57;;;;;;;10.30;7.60;;;;;;;6.49;95.53;99622.88;6003617;29;20219;-75
2020/12/29 10:08:01;;;;;;;7.30;6.70;;;;;;;6.68;94.48;99633.56;6013472;29;20351;-79
2020/12/29 10:11:11;;;;;;;7.87;7.13;;;;;;;6.60;94.89;99635.72;6015608;29;20203;-77
2020/12/29 10:14:14;;;;;;;8.47;7.57;;;;;;;6.48;95.86;99632.88;6017450;29;20199;-77
2020/12/29 10:17:18;;;;;;;8.70;7.00;;;;;;;6.64;93.47;99626.09;6010931;29;20241;-76
2020/12/29 10:20:22;;;;;;;8.00;6.57;;;;;;;6.72;93.07;99617.69;6003722;29;20233;-77
2020/12/29 10:23:27;;;;;;;7.47;6.73;;;;;;;6.64;93.21;99620.66;6009147;29;20434;-78
2020/12/29 10:26:31;;;;;;;8.07;6.90;;;;;;;6.45;94.02;99608.94;6004488;29;20234;-81
2020/12/29 10:29:34;;;;;;;7.03;6.33;;;;;;;6.54;93.76;99604.09;6015080;29;20213;-76
2020/12/29 10:32:37;;;;;;;7.70;6.87;;;;;;;6.54;94.62;99615.75;6013121;29;20217;-76
2020/12/29 10:35:41;;;;;;;7.27;6.57;;;;;;;6.71;93.39;99621.44;6003700;29;20206;-80
2020/12/29 10:38:45;;;;;;;9.13;6.93;;;;;;;6.57;93.52;99609.91;6003781;29;20246;-77
2020/12/29 10:41:48;;;;;;;9.83;6.70;;;;;;;6.54;94.20;99614.91;6007865;29;20206;-76
2020/12/29 10:44:52;;;;;;;16.87;8.07;;;;;;;6.65;93.79;99611.50;6010207;29;20265;-78
2020/12/29 10:47:55;;;;;;;8.60;7.70;;;;;;;6.64;93.27;99610.66;5993854;29;20291;-76
2020/12/29 10:50:58;;;;;;;7.30;6.60;;;;;;;6.54;94.35;99617.63;6000802;29;20571;-79
2020/12/29 10:54:03;;;;;;;9.37;7.20;;;;;;;6.43;93.96;99596.66;6009538;29;20277;-78
2020/12/29 10:57:08;;;;;;;7.27;6.57;;;;;;;6.56;93.91;99620.94;6002725;29;20253;-77
2020/12/29 11:00:12;;;;;;;10.23;7.43;;;;;;;6.55;94.53;99616.59;5991200;29;20210;-76
2020/12/29 11:03:32;;;;;;;8.10;7.30;;;;;;;6.74;92.83;99623.72;6000571;29;20205;-77
2020/12/29 11:06:35;;;;;;;10.77;7.20;;;;;;;6.77;92.60;99612.44;6003648;29;20207;-78
2020/12/29 11:09:39;;;;;;;8.10;7.17;;;;;;;6.74;92.68;99621.00;6007019;29;20650;-76
2020/12/29 11:12:42;;;;;;;11.80;7.80;;;;;;;6.48;93.46;99610.38;5999492;29;20207;-79
2020/12/29 11:15:47;;;;;;;10.33;7.80;;;;;;;6.47;93.63;99619.56;6004802;29;20228;-78
2020/12/29 11:18:51;;;;;;;10.87;7.77;;;;;;;6.15;95.63;99614.16;6025750;29;20234;-82
2020/12/29 11:21:54;;;;;;;11.10;7.43;;;;;;;6.34;94.98;99614.25;5996342;29;20247;-78
2020/12/29 11:24:58;;;;;;;11.20;7.77;;;;;;;6.35;94.82;99616.72;5995067;29;20303;-78
2020/12/29 11:28:02;;;;;;;8.87;7.60;;;;;;;6.42;94.41;99605.84;6010512;29;20210;-78
2020/12/29 11:31:12;;;;;;;11.03;7.57;;;;;;;6.50;93.77;99602.84;5997128;29;20214;-78
2020/12/29 11:34:15;;;;;;;9.23;7.93;;;;;;;6.22;94.25;99573.47;5995035;29;20218;-79
2020/12/29 11:37:21;;;;;;;10.37;7.57;;;;;;;6.45;93.45;99589.13;6015217;29;20223;-78
2020/12/29 11:40:25;;;;;;;10.17;8.20;;;;;;;6.11;95.20;99572.28;6004206;29;20258;-78
2020/12/29 11:43:30;;;;;;;11.97;8.20;;;;;;;6.43;93.57;99596.66;6008147;29;20247;-79
2020/12/29 11:46:33;;;;;;;10.33;7.90;;;;;;;6.23;94.33;99586.81;6016661;29;20272;-81
2020/12/29 11:49:37;;;;;;;9.83;7.83;;;;;;;6.18;95.43;99600.19;5996855;29;20214;-76
2020/12/29 11:52:40;;;;;;;11.43;8.07;;;;;;;6.34;94.02;99598.00;5998579;29;20706;-76
2020/12/29 11:55:44;;;;;;;10.67;7.97;;;;;;;6.41;93.45;99598.75;5994925;29;20217;-77
2020/12/29 11:58:47;;;;;;;10.97;7.40;;;;;;;6.22;94.17;99601.38;5991077;29;20243;-76
2020/12/29 12:01:50;;;;;;;7.77;7.07;;;;;;;6.32;93.74;99590.91;6001403;29;20244;-78
2020/12/29 12:04:53;;;;;;;9.73;7.67;;;;;;;6.30;93.90;99593.00;6000190;29;20226;-79
2020/12/29 12:07:58;;;;;;;12.50;7.87;;;;;;;6.20;93.55;99598.06;6007041;29;20245;-78
2020/12/29 12:11:02;;;;;;;9.47;7.80;;;;;;;6.01;94.98;99593.59;5998033;29;20218;-78
2020/12/29 12:14:05;;;;;;;9.07;7.67;;;;;;;6.03;94.52;99586.13;5995940;29;20203;-79
2020/12/29 12:17:09;;;;;;;9.53;7.17;;;;;;;6.21;93.78;99583.47;5996662;29;20214;-78
2020/12/29 12:20:12;;;;;;;10.50;7.70;;;;;;;6.04;94.06;99576.94;5994567;29;20219;-79
2020/12/29 12:23:20;;;;;;;7.50;6.83;;;;;;;6.32;93.26;99585.47;6014816;29;20205;-78
2020/12/29 12:26:24;;;;;;;8.57;6.93;;;;;;;6.07;94.06;99560.25;6009353;29;20270;-79
2020/12/29 12:29:28;;;;;;;9.00;7.07;;;;;;;6.32;93.07;99585.47;5996728;29;20214;-79
2020/12/29 12:32:32;;;;;;;10.33;6.73;;;;;;;6.00;94.00;99575.72;6002348;29;20196;-78
2020/12/29 12:35:36;;;;;;;7.97;7.17;;;;;;;6.07;94.21;99586.50;6005099;29;20270;-79
2020/12/29 12:38:41;;;;;;;9.53;7.03;;;;;;;6.01;94.51;99593.59;6006279;29;20223;-78
2020/12/29 12:41:45;;;;;;;8.57;6.80;;;;;;;6.15;93.75;99589.78;6003445;29;20294;-78
2020/12/29 12:44:49;;;;;;;9.67;6.40;;;;;;;6.25;93.08;99584.72;6009352;29;20215;-77
2020/12/29 12:47:52;;;;;;;7.10;6.60;;;;;;;6.15;93.47;99595.19;6010884;29;20220;-79
2020/12/29 12:50:55;;;;;;;9.53;7.10;;;;;;;6.30;92.46;99593.00;6007174;29;20245;-79
2020/12/29 12:53:58;;;;;;;7.40;5.90;;;;;;;5.90;91.96;99564.53;6000798;29;20229;-79
2020/12/29 12:57:02;;;;;;;9.27;6.23;;;;;;;6.09;92.69;99596.06;5993625;29;20405;-78
2020/12/29 13:00:07;;;;;;;7.10;6.40;;;;;;;6.12;92.64;99578.53;6002700;29;20753;-79
2020/12/29 13:03:27;;;;;;;7.37;6.40;;;;;;;6.12;92.49;99579.38;5998163;29;20207;-77
2020/12/29 13:06:31;;;;;;;6.40;5.90;;;;;;;6.25;92.51;99584.72;5999697;29;20203;-77
2020/12/29 13:09:34;;;;;;;9.47;6.57;;;;;;;6.12;92.69;99579.38;5996890;29;20294;-79
2020/12/29 13:12:38;;;;;;;6.03;5.53;;;;;;;6.04;93.24;99576.09;5994563;29;20276;-77
2020/12/29 13:15:42;;;;;;;6.47;5.87;;;;;;;6.03;93.27;99580.72;5992461;29;20207;-78
2020/12/29 13:18:45;;;;;;;7.87;6.07;;;;;;;5.84;93.68;99565.38;5998038;29;20230;-79
2020/12/29 13:21:49;;;;;;;7.93;6.27;;;;;;;5.97;93.28;99570.72;6002019;29;20574;-78
2020/12/29 13:24:53;;;;;;;9.03;6.67;;;;;;;5.98;93.46;99569.69;5997605;29;20541;-79
2020/12/29 13:27:57;;;;;;;9.67;6.20;;;;;;;5.92;94.07;99546.19;6021647;29;20214;-79
2020/12/29 13:31:00;;;;;;;8.10;6.37;;;;;;;6.00;93.64;99554.06;6021276;29;20658;-79
2020/12/29 13:34:08;;;;;;;6.70;6.10;;;;;;;5.92;94.18;99562.44;6015635;29;20210;-79
2020/12/29 13:37:21;;;;;;;7.60;5.90;;;;;;;5.91;93.30;99566.19;5996196;29;20288;-78
2020/12/29 13:40:24;;;;;;;6.87;5.97;;;;;;;5.96;93.64;99569.06;6006651;29;20329;-79
2020/12/29 13:43:34;;;;;;;6.37;5.80;;;;;;;6.11;92.66;99572.28;5989857;29;20570;-79
2020/12/29 13:46:37;;;;;;;6.13;5.63;;;;;;;6.18;91.87;99567.69;6009818;29;20218;-80
2020/12/29 13:49:40;;;;;;;6.87;6.03;;;;;;;6.05;93.36;99573.19;6017077;29;20210;-77
2020/12/29 13:52:43;;;;;;;5.40;5.03;;;;;;;5.85;94.05;99577.91;6007422;29;20655;-77
2020/12/29 13:55:48;;;;;;;6.33;5.17;;;;;;;5.97;93.76;99569.91;6009547;29;20231;-77
2020/12/29 13:58:52;;;;;;;5.93;5.50;;;;;;;5.99;93.26;99574.03;6008689;29;20278;-77
2020/12/29 14:01:55;;;;;;;7.03;5.87;;;;;;;5.83;93.68;99569.09;6001456;29;20578;-77
2020/12/29 14:04:59;;;;;;;6.47;5.20;;;;;;;5.94;93.41;99571.16;5992530;29;20699;-78
2020/12/29 14:08:04;;;;;;;8.33;5.43;;;;;;;5.83;93.89;99584.53;6013176;29;20294;-79
2020/12/29 14:11:13;;;;;;;6.40;5.57;;;;;;;5.83;93.84;99569.09;6000772;29;20739;-77
2020/12/29 14:14:22;;;;;;;12.63;5.47;;;;;;;5.79;93.80;99578.72;6002806;29;20694;-76
2020/12/29 14:17:26;;;;;;;5.50;5.10;;;;;;;5.66;93.97;99554.44;6007292;29;20366;-79
2020/12/29 14:20:29;;;;;;;5.80;5.23;;;;;;;5.96;93.45;99582.59;6013336;29;20229;-79
2020/12/29 14:23:32;;;;;;;5.53;5.13;;;;;;;5.88;93.95;99565.81;6008195;29;20217;-78
2020/12/29 14:26:36;;;;;;;5.60;5.10;;;;;;;5.81;93.94;99570.38;6007131;29;20253;-78
2020/12/29 14:29:40;;;;;;;5.03;4.67;;;;;;;5.86;94.16;99568.72;5998920;29;20720;-81
2020/12/29 14:32:45;;;;;;;5.27;4.87;;;;;;;5.97;93.98;99565.31;6003901;29;20206;-79
2020/12/29 14:35:50;;;;;;;5.00;4.53;;;;;;;5.93;94.39;99566.78;6016895;29;20249;-82
2020/12/29 14:38:53;;;;;;;6.07;5.07;;;;;;;5.92;94.60;99557.03;6008607;29;20308;-78
2020/12/29 14:41:57;;;;;;;7.53;5.17;;;;;;;5.92;94.64;99565.16;6001020;29;20291;-80